Time;durP1;ratioP1;P1;durP2;ratioP2;P2;SDS_P1;SDS_P2;PMS_P1;PMS_P2;Temp;Humidity;BMP_temperature;BMP_pressure;BME280_temperature;BME280_humidity;BME280_pressure;Samples;Min_cycle;Max_cycle;Signal;HPM_P1;HPM_P2
2023/02/05 00:01:19;;;;;;;6.70;5.03;;;;;;;;;;4898369;29;20462;-69
2023/02/05 00:03:44;;;;;;;9.43;6.10;;;;;;;;;;4897627;29;20084;-69
2023/02/05 00:06:09;;;;;;;11.32;6.05;;;;;;;;;;4898710;29;20047;-73
2023/02/05 00:08:36;;;;;;;8.18;5.25;;;;;;;;;;4897969;29;20402;-74
2023/02/05 00:11:08;;;;;;;9.18;5.97;;;;;;;;;;4900684;29;20029;-73
2023/02/05 00:13:36;;;;;;;16.55;10.32;;;;;;;;;;4899825;29;20029;-73
2023/02/05 00:16:06;;;;;;;16.98;10.20;;;;;;;;;;4900554;29;20128;-72
2023/02/05 00:18:31;;;;;;;30.08;19.67;;;;;;;;;;4900688;29;20032;-71
2023/02/05 00:20:57;;;;;;;25.77;16.75;;;;;;;;;;4901054;29;20458;-71
2023/02/05 00:23:22;;;;;;;16.58;10.80;;;;;;;;;;4900950;29;20033;-70
2023/02/05 00:25:47;;;;;;;15.68;9.25;;;;;;;;;;4901120;29;20108;-70
2023/02/05 00:28:13;;;;;;;66.00;32.03;;;;;;;;;;4884526;29;20043;-70
2023/02/05 00:30:39;;;;;;;37.92;20.67;;;;;;;;;;4900926;29;20397;-70
2023/02/05 00:33:07;;;;;;;18.08;10.60;;;;;;;;;;4899270;29;20021;-70
2023/02/05 00:35:32;;;;;;;21.90;14.43;;;;;;;;;;4884027;29;20033;-70
2023/02/05 00:37:57;;;;;;;18.05;15.27;;;;;;;;;;4883963;29;20093;-70
2023/02/05 00:40:23;;;;;;;12.60;9.38;;;;;;;;;;4868496;29;20096;-70
2023/02/05 00:42:48;;;;;;;9.98;8.45;;;;;;;;;;4884026;29;20485;-70
2023/02/05 00:45:13;;;;;;;11.98;9.40;;;;;;;;;;4900801;29;20447;-70
2023/02/05 00:47:39;;;;;;;13.93;9.98;;;;;;;;;;4883853;29;20386;-70
2023/02/05 00:50:04;;;;;;;27.50;24.48;;;;;;;;;;4883717;29;20037;-70
2023/02/05 00:52:30;;;;;;;11.45;10.05;;;;;;;;;;4883793;29;20036;-70
2023/02/05 00:54:55;;;;;;;11.73;10.65;;;;;;;;;;4899236;29;20027;-70
2023/02/05 00:57:23;;;;;;;10.27;9.27;;;;;;;;;;4868536;29;20486;-72
2023/02/05 00:59:49;;;;;;;14.38;8.88;;;;;;;;;;4900324;29;20039;-72
2023/02/05 01:02:22;;;;;;;15.48;10.60;;;;;;;;;;4900365;29;20051;-72
2023/02/05 01:04:47;;;;;;;10.98;7.32;;;;;;;;;;4883585;29;20485;-74
2023/02/05 01:07:13;;;;;;;7.85;5.82;;;;;;;;;;4884061;29;20024;-72
2023/02/05 01:09:40;;;;;;;9.20;6.55;;;;;;;;;;4903110;29;20036;-71
2023/02/05 01:12:08;;;;;;;10.48;7.25;;;;;;;;;;4885788;29;20032;-71
2023/02/05 01:14:34;;;;;;;7.82;6.40;;;;;;;;;;4883361;29;20136;-71
2023/02/05 01:16:59;;;;;;;12.45;7.18;;;;;;;;;;4883178;29;20064;-72
2023/02/05 01:19:25;;;;;;;7.15;5.55;;;;;;;;;;4899946;29;20025;-71
2023/02/05 01:21:50;;;;;;;6.93;5.40;;;;;;;;;;4883061;29;20039;-70
2023/02/05 01:24:16;;;;;;;6.53;5.10;;;;;;;;;;4867954;29;20124;-70
2023/02/05 01:26:41;;;;;;;4.63;3.85;;;;;;;;;;4883366;29;20465;-67
2023/02/05 01:29:07;;;;;;;6.97;4.95;;;;;;;;;;4900113;29;20525;-66
2023/02/05 01:31:32;;;;;;;9.32;5.32;;;;;;;;;;4899690;29;20029;-67
2023/02/05 01:33:58;;;;;;;6.03;3.88;;;;;;;;;;4882965;29;20033;-67
2023/02/05 01:36:23;;;;;;;3.58;3.22;;;;;;;;;;4899834;29;20028;-66
2023/02/05 01:38:49;;;;;;;3.45;3.15;;;;;;;;;;4899814;29;20130;-68
2023/02/05 01:41:14;;;;;;;5.78;3.92;;;;;;;;;;4899972;29;20484;-68
2023/02/05 01:43:40;;;;;;;6.13;4.97;;;;;;;;;;4898710;29;20028;-68
2023/02/05 01:46:24;;;;;;;5.90;4.88;;;;;;;;;;4898294;29;20441;-69
2023/02/05 01:48:51;;;;;;;9.50;6.13;;;;;;;;;;4898317;29;20146;-69
2023/02/05 01:51:17;;;;;;;6.70;5.53;;;;;;;;;;4897675;29;20397;-69
2023/02/05 01:53:42;;;;;;;7.32;5.65;;;;;;;;;;4899060;29;20043;-69
2023/02/05 01:56:15;;;;;;;8.65;5.80;;;;;;;;;;4897941;29;20086;-69
2023/02/05 01:58:59;;;;;;;7.88;5.35;;;;;;;;;;4898132;29;20099;-69
2023/02/05 02:01:25;;;;;;;11.68;7.85;;;;;;;;;;4898151;29;20354;-69
2023/02/05 02:03:52;;;;;;;14.93;9.57;;;;;;;;;;4882270;29;20073;-69
2023/02/05 02:06:17;;;;;;;11.63;7.40;;;;;;;;;;4882469;29;20051;-69
2023/02/05 02:08:43;;;;;;;14.77;8.68;;;;;;;;;;4897973;29;20032;-69
2023/02/05 02:11:09;;;;;;;13.27;8.70;;;;;;;;;;4899150;29;20032;-69
2023/02/05 02:13:35;;;;;;;7.78;5.75;;;;;;;;;;4882305;29;20028;-69
2023/02/05 02:16:04;;;;;;;6.03;5.00;;;;;;;;;;4897773;29;20127;-69
2023/02/05 02:18:30;;;;;;;6.03;5.30;;;;;;;;;;4898924;29;20120;-69
2023/02/05 02:21:19;;;;;;;5.28;4.78;;;;;;;;;;4882613;29;20406;-69
2023/02/05 02:23:44;;;;;;;6.93;5.10;;;;;;;;;;4898997;29;20039;-69
2023/02/05 02:26:15;;;;;;;5.70;5.15;;;;;;;;;;4882145;29;20115;-67
2023/02/05 02:28:45;;;;;;;6.18;5.03;;;;;;;;;;4898748;29;20038;-67
2023/02/05 02:31:19;;;;;;;6.30;5.13;;;;;;;;;;4898916;29;20060;-67
2023/02/05 02:34:03;;;;;;;5.85;4.55;;;;;;;;;;4898821;29;20024;-67
2023/02/05 02:36:38;;;;;;;5.32;4.72;;;;;;;;;;4897401;29;20033;-68
2023/02/05 02:39:43;;;;;;;5.43;4.80;;;;;;;;;;4912901;23;20068;31
2023/02/05 02:42:20;;;;;;;6.72;5.43;;;;;;;;;;4813069;29;20486;-67
2023/02/05 02:44:51;;;;;;;9.98;6.22;;;;;;;;;;4845082;29;20569;-67
2023/02/05 02:47:19;;;;;;;35.28;14.93;;;;;;;;;;4844748;29;20029;-69
2023/02/05 02:49:54;;;;;;;27.23;13.05;;;;;;;;;;4830155;29;20406;-68
2023/02/05 02:52:20;;;;;;;11.00;5.72;;;;;;;;;;4844677;29;20033;-72
2023/02/05 02:54:47;;;;;;;6.38;4.55;;;;;;;;;;4830131;29;20352;-72
2023/02/05 02:57:16;;;;;;;4.53;3.53;;;;;;;;;;4844623;29;20395;-72
2023/02/05 02:59:43;;;;;;;5.07;4.40;;;;;;;;;;4845228;29;20036;-72
2023/02/05 03:02:10;;;;;;;4.43;4.03;;;;;;;;;;4829541;29;20154;-72
2023/02/05 03:04:37;;;;;;;6.22;4.50;;;;;;;;;;4844770;29;20033;-72
2023/02/05 03:07:10;;;;;;;6.82;4.30;;;;;;;;;;4861420;29;20049;-72
2023/02/05 03:09:43;;;;;;;5.63;4.40;;;;;;;;;;4844822;29;20058;-71
2023/02/05 03:12:09;;;;;;;4.40;4.00;;;;;;;;;;4844597;29;20033;-71
2023/02/05 03:14:35;;;;;;;4.90;4.13;;;;;;;;;;4844419;29;20034;-71
2023/02/05 03:17:01;;;;;;;4.40;3.95;;;;;;;;;;4844931;29;20025;-72
2023/02/05 03:19:28;;;;;;;6.78;4.82;;;;;;;;;;4829892;29;20037;-71
2023/02/05 03:22:04;;;;;;;5.95;5.00;;;;;;;;;;4861282;29;20044;-70
2023/02/05 03:24:30;;;;;;;5.85;4.80;;;;;;;;;;4861277;29;20120;-70
2023/02/05 03:26:57;;;;;;;6.50;5.13;;;;;;;;;;4844576;29;20037;-69
2023/02/05 03:29:29;;;;;;;6.85;4.90;;;;;;;;;;4861114;29;20040;-70
2023/02/05 03:32:15;;;;;;;6.45;5.22;;;;;;;;;;4860857;29;20041;-70
2023/02/05 03:34:49;;;;;;;5.32;4.82;;;;;;;;;;4846732;29;20076;-72
2023/02/05 03:37:27;;;;;;;6.93;5.10;;;;;;;;;;4848822;29;20099;-70
2023/02/05 03:39:53;;;;;;;8.82;7.07;;;;;;;;;;4850248;29;20109;-68
2023/02/05 03:42:37;;;;;;;5.90;4.93;;;;;;;;;;4863118;29;20037;-68
2023/02/05 03:45:35;;;;;;;4.97;4.53;;;;;;;;;;4863043;29;20037;-72
2023/02/05 03:48:21;;;;;;;6.20;4.88;;;;;;;;;;4828738;29;20046;-71
2023/02/05 03:50:58;;;;;;;5.45;4.95;;;;;;;;;;4847490;29;20048;-71
2023/02/05 03:53:45;;;;;;;5.10;4.65;;;;;;;;;;4848359;29;20200;-73
2023/02/05 03:56:21;;;;;;;7.43;5.72;;;;;;;;;;4851098;29;20041;-70
2023/02/05 03:58:47;;;;;;;6.10;5.50;;;;;;;;;;4863308;29;20060;-69
2023/02/05 04:01:14;;;;;;;7.60;5.32;;;;;;;;;;4863267;29;20383;-69
2023/02/05 04:03:41;;;;;;;5.78;4.30;;;;;;;;;;4862877;29;20097;-69
2023/02/05 04:06:07;;;;;;;7.72;4.50;;;;;;;;;;4862954;29;20394;-69
2023/02/05 04:08:33;;;;;;;5.43;4.88;;;;;;;;;;4862825;29;20032;-69
2023/02/05 04:10:59;;;;;;;5.55;4.28;;;;;;;;;;4847334;29;20120;-68
2023/02/05 04:13:24;;;;;;;5.68;4.35;;;;;;;;;;4862797;29;20128;-68
2023/02/05 04:15:50;;;;;;;7.18;4.40;;;;;;;;;;4862684;29;20048;-68
2023/02/05 04:18:16;;;;;;;6.13;4.53;;;;;;;;;;4847724;29;20065;-69
2023/02/05 04:20:43;;;;;;;6.70;5.00;;;;;;;;;;4862494;29;20034;-68
2023/02/05 04:23:10;;;;;;;5.30;4.38;;;;;;;;;;4847540;29;20045;-68
2023/02/05 04:25:37;;;;;;;6.32;4.88;;;;;;;;;;4862779;29;20040;-68
2023/02/05 04:28:04;;;;;;;6.22;4.80;;;;;;;;;;4862400;29;20041;-67
2023/02/05 04:30:30;;;;;;;5.68;4.32;;;;;;;;;;4862242;29;20026;-67
2023/02/05 04:32:56;;;;;;;5.60;4.85;;;;;;;;;;4862000;29;20048;-66
2023/02/05 04:35:21;;;;;;;5.40;4.90;;;;;;;;;;4862068;29;20483;-66
2023/02/05 04:37:46;;;;;;;5.20;4.20;;;;;;;;;;4862693;29;20090;-66
2023/02/05 04:40:13;;;;;;;4.90;4.28;;;;;;;;;;4862275;29;20076;-69
2023/02/05 04:42:38;;;;;;;5.10;4.20;;;;;;;;;;4863865;29;20122;-70
2023/02/05 04:45:04;;;;;;;4.32;3.45;;;;;;;;;;4863110;29;20059;-70
2023/02/05 04:47:30;;;;;;;4.93;4.10;;;;;;;;;;4846603;29;20036;-70
2023/02/05 04:49:55;;;;;;;4.10;3.70;;;;;;;;;;4863149;29;20033;-69
2023/02/05 04:52:21;;;;;;;4.53;3.65;;;;;;;;;;4863354;29;20045;-71
2023/02/05 04:54:46;;;;;;;4.80;4.25;;;;;;;;;;4863361;29;20033;-70
2023/02/05 04:57:11;;;;;;;5.43;4.43;;;;;;;;;;4862080;29;20017;-70
2023/02/05 04:59:36;;;;;;;4.38;3.78;;;;;;;;;;4863215;29;20121;-69
2023/02/05 05:04:31;;;;;;;6.18;4.25;;;;;;;;;;4874458;29;20502;-70
2023/02/05 05:06:56;;;;;;;6.75;4.82;;;;;;;;;;4862829;29;20085;-68
2023/02/05 05:09:24;;;;;;;7.38;5.40;;;;;;;;;;4861547;29;20483;-67
2023/02/05 05:11:52;;;;;;;6.85;5.70;;;;;;;;;;4863200;29;20025;-67
2023/02/05 05:14:19;;;;;;;8.07;6.45;;;;;;;;;;4862019;29;20033;-68
2023/02/05 05:16:44;;;;;;;7.80;6.07;;;;;;;;;;4862744;29;20479;-67
2023/02/05 05:19:11;;;;;;;8.15;6.40;;;;;;;;;;4861897;29;20094;-66
2023/02/05 05:21:36;;;;;;;8.10;5.70;;;;;;;;;;4861370;29;20494;-67
2023/02/05 05:24:02;;;;;;;11.70;7.68;;;;;;;;;;4862184;29;20057;-71
2023/02/05 05:26:27;;;;;;;13.98;8.80;;;;;;;;;;4877186;29;20045;-65
2023/02/05 05:28:58;;;;;;;13.90;8.80;;;;;;;;;;4862488;29;20056;-65
2023/02/05 05:31:23;;;;;;;11.77;7.95;;;;;;;;;;4862429;29;20053;-65
2023/02/05 05:33:49;;;;;;;10.60;8.32;;;;;;;;;;4876849;29;20029;-66
2023/02/05 05:36:15;;;;;;;12.38;7.82;;;;;;;;;;4862141;29;20056;-65
2023/02/05 05:38:40;;;;;;;9.43;6.82;;;;;;;;;;4860781;29;20026;-67
2023/02/05 05:44:01;;;;;;;10.30;7.65;;;;;;;;;;4827528;29;20049;-69
2023/02/05 05:46:27;;;;;;;11.68;8.75;;;;;;;;;;4861266;29;20033;-69
2023/02/05 05:48:55;;;;;;;14.57;8.10;;;;;;;;;;4861275;29;20036;-70
2023/02/05 05:51:21;;;;;;;11.82;7.90;;;;;;;;;;4862558;29;20061;-69
2023/02/05 05:53:46;;;;;;;13.10;8.93;;;;;;;;;;4861689;29;20832;-70
2023/02/05 05:56:12;;;;;;;12.68;9.23;;;;;;;;;;4861822;29;20026;-71
2023/02/05 05:58:37;;;;;;;10.35;7.53;;;;;;;;;;4861680;29;20056;-73
2023/02/05 06:01:03;;;;;;;10.65;7.75;;;;;;;;;;4861639;29;20025;-72
2023/02/05 06:03:28;;;;;;;11.93;8.40;;;;;;;;;;4859659;29;20167;-72
2023/02/05 06:05:54;;;;;;;10.30;8.05;;;;;;;;;;4874987;29;20042;-69
2023/02/05 06:08:19;;;;;;;9.88;7.47;;;;;;;;;;4860612;29;20037;-69
2023/02/05 06:10:44;;;;;;;10.75;8.90;;;;;;;;;;4844189;29;20024;-69
2023/02/05 06:13:10;;;;;;;10.88;8.80;;;;;;;;;;4859235;29;20491;-69
2023/02/05 06:15:35;;;;;;;12.15;9.05;;;;;;;;;;4859848;29;20026;-69
2023/02/05 06:18:01;;;;;;;13.05;9.48;;;;;;;;;;4858855;29;20034;-69
2023/02/05 06:20:26;;;;;;;13.75;9.80;;;;;;;;;;4857757;29;20033;-70
2023/02/05 06:22:51;;;;;;;33.60;19.23;;;;;;;;;;4858355;29;20097;-70
2023/02/05 06:25:17;;;;;;;25.85;15.45;;;;;;;;;;4860887;29;20045;-68
2023/02/05 06:27:43;;;;;;;33.95;19.30;;;;;;;;;;4860907;29;20064;-71
2023/02/05 06:30:09;;;;;;;37.70;20.75;;;;;;;;;;4859587;29;20379;-71
2023/02/05 06:32:34;;;;;;;47.05;28.70;;;;;;;;;;4860061;29;20045;-73
2023/02/05 06:35:00;;;;;;;42.35;26.33;;;;;;;;;;4860384;29;20097;-73
2023/02/05 06:37:27;;;;;;;44.65;24.88;;;;;;;;;;4859938;29;20057;-73
2023/02/05 06:39:52;;;;;;;38.15;23.25;;;;;;;;;;4859927;29;20041;-74
2023/02/05 06:42:18;;;;;;;28.30;16.77;;;;;;;;;;4861093;29;20030;-73
2023/02/05 06:44:43;;;;;;;21.17;13.98;;;;;;;;;;4859425;29;20038;-73
2023/02/05 06:47:10;;;;;;;31.88;19.35;;;;;;;;;;4859940;29;20072;-73
2023/02/05 06:49:35;;;;;;;21.42;13.57;;;;;;;;;;4861101;29;20423;-76
2023/02/05 06:52:00;;;;;;;19.45;13.13;;;;;;;;;;4859239;29;20037;-75
2023/02/05 06:54:26;;;;;;;22.35;14.63;;;;;;;;;;4860071;29;20025;-73
2023/02/05 06:56:51;;;;;;;34.35;20.05;;;;;;;;;;4859038;29;20053;-73
2023/02/05 06:59:16;;;;;;;75.32;40.75;;;;;;;;;;4860281;29;20520;-73
2023/02/05 07:01:42;;;;;;;84.22;47.63;;;;;;;;;;4860159;29;20113;-73
2023/02/05 07:04:07;;;;;;;87.03;48.92;;;;;;;;;;4875557;29;20061;-72
2023/02/05 07:06:33;;;;;;;102.13;58.65;;;;;;;;;;4878781;29;20041;-73
2023/02/05 07:09:00;;;;;;;98.63;57.90;;;;;;;;;;4880690;29;20406;-71
2023/02/05 07:11:25;;;;;;;84.97;50.90;;;;;;;;;;4882070;29;20557;-72
2023/02/05 07:13:53;;;;;;;80.78;49.53;;;;;;;;;;4882084;29;20041;-72
2023/02/05 07:16:18;;;;;;;70.93;34.58;;;;;;;;;;4883233;29;20040;-72
2023/02/05 07:18:45;;;;;;;75.00;46.97;;;;;;;;;;4882020;29;20029;-72
2023/02/05 07:21:14;;;;;;;76.57;47.13;;;;;;;;;;4881818;29;20060;-72
2023/02/05 07:23:40;;;;;;;75.15;45.40;;;;;;;;;;4897676;29;20033;-72
2023/02/05 07:26:09;;;;;;;68.85;41.80;;;;;;;;;;4883168;29;20068;-72
2023/02/05 07:28:35;;;;;;;74.30;42.85;;;;;;;;;;4883164;29;20474;-72
2023/02/05 07:31:05;;;;;;;77.20;43.95;;;;;;;;;;4883091;29;20128;-72
2023/02/05 07:33:32;;;;;;;76.70;44.23;;;;;;;;;;4881906;29;20047;-72
2023/02/05 07:36:00;;;;;;;78.82;46.53;;;;;;;;;;4879762;29;20029;-72
2023/02/05 07:38:26;;;;;;;78.03;46.35;;;;;;;;;;4881127;29;20036;-72
2023/02/05 07:40:51;;;;;;;84.43;51.50;;;;;;;;;;4880780;29;20453;-72
2023/02/05 07:43:16;;;;;;;82.30;51.03;;;;;;;;;;4881907;29;20033;-72
2023/02/05 07:45:42;;;;;;;100.55;64.72;;;;;;;;;;4895408;29;20075;-72
2023/02/05 07:48:07;;;;;;;93.22;57.40;;;;;;;;;;4881694;29;20056;-71
2023/02/05 07:50:32;;;;;;;79.82;49.00;;;;;;;;;;4881620;29;20382;-72
2023/02/05 07:53:02;;;;;;;75.20;47.30;;;;;;;;;;4882881;29;20037;-71
2023/02/05 07:55:27;;;;;;;76.90;45.45;;;;;;;;;;4883111;29;20044;-71
2023/02/05 07:57:53;;;;;;;71.57;41.55;;;;;;;;;;4882016;29;20029;-71
2023/02/05 08:00:19;;;;;;;68.75;39.45;;;;;;;;;;4881373;29;20040;-71
2023/02/05 08:02:44;;;;;;;62.63;38.40;;;;;;;;;;4882348;29;20421;-71
2023/02/05 08:05:10;;;;;;;55.72;33.10;;;;;;;;;;4882413;29;20033;-71
2023/02/05 08:07:36;;;;;;;47.08;30.48;;;;;;;;;;4881168;29;20393;-71
2023/02/05 08:10:02;;;;;;;53.22;32.53;;;;;;;;;;4882356;29;20037;-71
2023/02/05 08:12:27;;;;;;;48.38;28.25;;;;;;;;;;4882468;29;20093;-71
2023/02/05 08:14:53;;;;;;;35.47;21.65;;;;;;;;;;4882268;29;20052;-70
2023/02/05 08:17:19;;;;;;;25.08;15.68;;;;;;;;;;4882230;29;20456;-70
2023/02/05 08:19:44;;;;;;;29.88;20.50;;;;;;;;;;4880234;29;20089;-71
2023/02/05 08:22:09;;;;;;;31.58;16.35;;;;;;;;;;4882340;29;20029;-71
2023/02/05 08:24:35;;;;;;;44.60;15.65;;;;;;;;;;4882046;29;20024;-71
2023/02/05 08:27:00;;;;;;;17.98;10.18;;;;;;;;;;4882014;29;20044;-71
2023/02/05 08:29:25;;;;;;;17.00;11.10;;;;;;;;;;4882022;29;20029;-71
2023/02/05 08:31:50;;;;;;;13.98;8.70;;;;;;;;;;4881941;29;20033;-71
2023/02/05 08:34:16;;;;;;;27.77;11.88;;;;;;;;;;4880490;29;20394;-70
2023/02/05 08:36:41;;;;;;;14.07;9.60;;;;;;;;;;4881793;29;20025;-70
2023/02/05 08:39:06;;;;;;;20.55;12.93;;;;;;;;;;4881819;29;20381;-70
2023/02/05 08:41:32;;;;;;;17.90;10.88;;;;;;;;;;4896144;29;20037;-70
2023/02/05 08:43:57;;;;;;;24.10;13.63;;;;;;;;;;4881753;29;20029;-71
2023/02/05 08:46:24;;;;;;;30.05;19.70;;;;;;;;;;4880428;29;20033;-71
2023/02/05 08:48:50;;;;;;;22.50;11.35;;;;;;;;;;4881736;29;20070;-71
2023/02/05 08:51:15;;;;;;;18.90;9.85;;;;;;;;;;4881622;29;20033;-71
2023/02/05 08:53:42;;;;;;;20.92;12.40;;;;;;;;;;4880373;29;20520;-71
2023/02/05 08:56:09;;;;;;;26.02;13.13;;;;;;;;;;4881521;29;20029;-71
2023/02/05 08:58:35;;;;;;;24.35;11.68;;;;;;;;;;4881494;29;20044;-71
2023/02/05 09:01:01;;;;;;;100.20;46.53;;;;;;;;;;4881533;29;20021;-71
2023/02/05 09:03:27;;;;;;;161.32;93.00;;;;;;;;;;4881161;29;20430;-71
2023/02/05 09:05:52;;;;;;;779.47;419.83;;;;;;;;;;4880182;29;20041;-71
2023/02/05 09:08:19;;;;;;;199.57;99.05;;;;;;;;;;4881227;29;20112;-71
2023/02/05 09:10:45;;;;;;;442.83;216.30;;;;;;;;;;4879962;29;20045;-71
2023/02/05 09:13:10;;;;;;;1275.72;668.85;;;;;;;;;;4879875;29;20393;-70
2023/02/05 09:15:40;;;;;;;1999.90;942.65;;;;;;;;;;4879949;29;20037;-70
2023/02/05 09:18:05;;;;;;;590.25;342.42;;;;;;;;;;4881103;29;20033;-70
2023/02/05 09:20:31;;;;;;;835.17;525.58;;;;;;;;;;4895353;29;20043;-71
2023/02/05 09:22:56;;;;;;;767.88;535.38;;;;;;;;;;4881031;29;20033;-71
2023/02/05 09:25:21;;;;;;;589.60;428.30;;;;;;;;;;4879831;29;20108;-71
2023/02/05 09:27:47;;;;;;;719.55;373.42;;;;;;;;;;4880956;29;20108;-71
2023/02/05 09:30:12;;;;;;;479.70;246.77;;;;;;;;;;4881260;29;20037;-71
2023/02/05 09:32:38;;;;;;;298.83;134.55;;;;;;;;;;4878777;29;20170;-71
2023/02/05 09:35:04;;;;;;;473.13;257.27;;;;;;;;;;4879633;29;20048;-71
2023/02/05 09:37:29;;;;;;;552.05;278.52;;;;;;;;;;4879633;29;20506;-71
2023/02/05 09:39:55;;;;;;;217.38;101.70;;;;;;;;;;4880619;29;20096;-71
2023/02/05 09:42:32;;;;;;;930.17;453.85;;;;;;;;;;4879366;29;20451;-71
2023/02/05 09:45:02;;;;;;;423.20;205.02;;;;;;;;;;4879497;29;20120;-71
2023/02/05 09:47:40;;;;;;;748.75;396.90;;;;;;;;;;4879360;29;20029;-71
2023/02/05 09:50:17;;;;;;;65.78;28.75;;;;;;;;;;4879410;29;20468;-71
2023/02/05 09:52:45;;;;;;;216.65;78.95;;;;;;;;;;4880476;29;20040;-71
2023/02/05 09:55:30;;;;;;;754.92;306.27;;;;;;;;;;4880475;29;20025;-71
2023/02/05 09:57:59;;;;;;;930.47;400.25;;;;;;;;;;4870403;29;20067;-71
2023/02/05 10:00:29;;;;;;;845.95;356.08;;;;;;;;;;4880368;29;20033;-71
2023/02/05 10:03:04;;;;;;;114.95;46.78;;;;;;;;;;4878980;29;20182;-71
2023/02/05 10:05:31;;;;;;;524.25;173.00;;;;;;;;;;4879029;29;20048;-71
2023/02/05 10:08:12;;;;;;;1037.97;412.77;;;;;;;;;;4878965;29;20044;-71
2023/02/05 10:10:42;;;;;;;584.53;192.65;;;;;;;;;;4863469;29;20064;-73
2023/02/05 10:13:31;;;;;;;551.38;166.88;;;;;;;;;;4880074;29;20032;-74
2023/02/05 10:15:57;;;;;;;592.95;193.85;;;;;;;;;;4872607;29;20115;-74
2023/02/05 10:18:22;;;;;;;712.17;228.00;;;;;;;;;;4880078;29;20065;-74
2023/02/05 10:20:55;;;;;;;1105.88;410.70;;;;;;;;;;4878826;29;20036;-74
2023/02/05 10:23:26;;;;;;;1756.03;668.70;;;;;;;;;;4872257;23;20019;-71
2023/02/05 10:25:56;;;;;;;1233.78;520.38;;;;;;;;;;4930866;23;20063;-73
2023/02/05 10:28:21;;;;;;;149.82;56.20;;;;;;;;;;4936660;29;20028;-74
2023/02/05 10:30:54;;;;;;;67.05;33.70;;;;;;;;;;4919606;29;20035;-74
2023/02/05 10:33:38;;;;;;;1573.20;744.03;;;;;;;;;;4936414;29;20499;-73
2023/02/05 10:36:05;;;;;;;368.80;162.43;;;;;;;;;;4919470;29;20038;-73
2023/02/05 10:38:35;;;;;;;21.30;14.40;;;;;;;;;;4919266;29;20011;-73
2023/02/05 10:41:06;;;;;;;35.20;19.98;;;;;;;;;;4936434;29;20503;-73
2023/02/05 10:43:52;;;;;;;318.70;187.43;;;;;;;;;;4935990;29;20031;-73
2023/02/05 10:46:18;;;;;;;15.75;11.63;;;;;;;;;;4919280;29;20126;-73
2023/02/05 10:48:43;;;;;;;529.08;327.92;;;;;;;;;;4936307;29;20075;-73
2023/02/05 10:51:14;;;;;;;15.35;13.75;;;;;;;;;;4919161;29;20040;-73
2023/02/05 10:53:40;;;;;;;62.55;43.90;;;;;;;;;;4936222;29;20074;-73
2023/02/05 10:56:05;;;;;;;13.35;11.48;;;;;;;;;;4919212;29;20051;-73
2023/02/05 10:58:43;;;;;;;16.35;14.65;;;;;;;;;;4936255;29;20028;-73
2023/02/05 11:01:20;;;;;;;26.95;21.48;;;;;;;;;;4918997;29;20506;-73
2023/02/05 11:03:48;;;;;;;44.58;31.70;;;;;;;;;;4919138;29;20036;-73
2023/02/05 11:06:13;;;;;;;142.63;95.45;;;;;;;;;;4936209;29;20102;-73
2023/02/05 11:08:43;;;;;;;127.90;83.10;;;;;;;;;;4918934;29;20131;-73
2023/02/05 11:11:18;;;;;;;8.77;7.87;;;;;;;;;;4936100;29;20039;-73
2023/02/05 11:13:47;;;;;;;10.65;8.30;;;;;;;;;;4935978;29;20067;-73
2023/02/05 11:16:20;;;;;;;95.40;53.63;;;;;;;;;;4936103;29;20028;-73
2023/02/05 11:18:53;;;;;;;214.15;112.35;;;;;;;;;;4919185;29;20059;-73
2023/02/05 11:21:19;;;;;;;65.80;35.00;;;;;;;;;;4936036;29;20415;-73
2023/02/05 11:23:53;;;;;;;141.02;76.32;;;;;;;;;;4936123;29;20047;-73
2023/02/05 11:26:19;;;;;;;100.97;47.30;;;;;;;;;;4918662;29;20544;-73
2023/02/05 11:28:45;;;;;;;64.32;38.13;;;;;;;;;;4936043;29;20036;-73
2023/02/05 11:31:31;;;;;;;143.25;76.22;;;;;;;;;;4918924;29;20106;-73
2023/02/05 11:34:06;;;;;;;36.00;22.58;;;;;;;;;;4935497;29;20051;-73
2023/02/05 11:36:31;;;;;;;51.50;36.67;;;;;;;;;;4935935;29;20092;-73
2023/02/05 11:38:57;;;;;;;42.58;29.90;;;;;;;;;;4936000;29;20031;-73
2023/02/05 11:41:25;;;;;;;18.65;13.20;;;;;;;;;;4918726;29;20036;-73
2023/02/05 11:43:51;;;;;;;27.10;19.25;;;;;;;;;;4935780;29;20039;-73
2023/02/05 11:46:17;;;;;;;13.20;9.68;;;;;;;;;;4918799;29;20159;-73
2023/02/05 11:48:44;;;;;;;14.05;10.63;;;;;;;;;;4903036;29;20400;-73
2023/02/05 11:51:12;;;;;;;8.52;7.00;;;;;;;;;;4919043;29;20047;-73
2023/02/05 11:53:46;;;;;;;12.13;10.82;;;;;;;;;;4935790;29;20020;-73
2023/02/05 11:56:17;;;;;;;9.50;7.25;;;;;;;;;;4938255;29;20451;-73
2023/02/05 11:59:02;;;;;;;20.25;13.55;;;;;;;;;;4922125;29;20047;-73
2023/02/05 12:01:32;;;;;;;10.77;9.27;;;;;;;;;;4921908;29;20428;-73
2023/02/05 12:03:59;;;;;;;7.88;6.53;;;;;;;;;;4906247;29;20035;-73
2023/02/05 12:06:47;;;;;;;19.35;10.77;;;;;;;;;;4939075;29;20103;-73
2023/02/05 12:09:18;;;;;;;8.05;5.85;;;;;;;;;;4914401;29;20052;-73
2023/02/05 12:12:02;;;;;;;8.38;6.93;;;;;;;;;;4938931;29;20059;-73
2023/02/05 12:14:37;;;;;;;13.40;8.57;;;;;;;;;;4905984;29;20452;-73
2023/02/05 12:17:18;;;;;;;12.13;8.57;;;;;;;;;;4921741;29;20042;-73
2023/02/05 12:19:59;;;;;;;39.22;25.38;;;;;;;;;;4938913;29;20034;-73
2023/02/05 12:22:46;;;;;;;11.55;8.27;;;;;;;;;;4905966;29;20398;-73
2023/02/05 12:25:12;;;;;;;8.10;6.40;;;;;;;;;;4921585;29;20038;-73
2023/02/05 12:27:43;;;;;;;14.93;9.38;;;;;;;;;;4921514;29;20040;-71
2023/02/05 12:30:10;;;;;;;238.88;85.25;;;;;;;;;;4921285;29;20157;-71
2023/02/05 12:32:54;;;;;;;764.35;319.80;;;;;;;;;;4937349;29;20111;-71
2023/02/05 12:35:42;;;;;;;791.88;332.05;;;;;;;;;;4920445;29;20039;-71
2023/02/05 12:38:13;;;;;;;190.73;66.43;;;;;;;;;;4937443;29;20143;-70
2023/02/05 12:40:55;;;;;;;566.15;196.15;;;;;;;;;;4937337;29;20031;-71
2023/02/05 12:43:37;;;;;;;162.27;54.50;;;;;;;;;;4928730;29;20028;-71
2023/02/05 12:46:06;;;;;;;54.17;20.83;;;;;;;;;;4930975;29;20051;-72
2023/02/05 12:48:39;;;;;;;937.95;339.60;;;;;;;;;;4932779;29;20024;-71
2023/02/05 12:51:08;;;;;;;67.53;29.88;;;;;;;;;;4920341;29;20059;-71
2023/02/05 12:53:36;;;;;;;91.43;35.58;;;;;;;;;;4924330;29;20032;-71
2023/02/05 12:56:20;;;;;;;1722.32;637.25;;;;;;;;;;4934399;29;20036;-72
2023/02/05 12:58:48;;;;;;;445.05;147.48;;;;;;;;;;4937112;29;20032;-71
2023/02/05 13:01:18;;;;;;;794.08;312.77;;;;;;;;;;4920579;29;20473;-71
2023/02/05 13:03:53;;;;;;;141.23;56.47;;;;;;;;;;4920258;29;20177;-71
2023/02/05 13:06:40;;;;;;;253.30;85.47;;;;;;;;;;4919777;29;20040;-72
2023/02/05 13:09:15;;;;;;;254.55;92.88;;;;;;;;;;4920534;29;20065;-71
2023/02/05 13:11:54;;;;;;;83.97;35.00;;;;;;;;;;4906002;29;20095;-71
2023/02/05 13:14:23;;;;;;;547.75;221.70;;;;;;;;;;4937287;29;20107;-72
2023/02/05 13:16:54;;;;;;;210.48;78.03;;;;;;;;;;4919940;29;20440;-73
2023/02/05 13:19:22;;;;;;;193.15;72.65;;;;;;;;;;4920202;29;20028;-73
2023/02/05 13:30:14;;;;;;;20.98;10.50;;;;;;;;;;4900908;29;20028;-72
2023/02/05 13:32:41;;;;;;;31.58;17.25;;;;;;;;;;4919490;29;20036;-72
2023/02/05 13:35:08;;;;;;;6.53;5.82;;;;;;;;;;4903739;29;20183;-72
2023/02/05 13:37:55;;;;;;;7.65;5.18;;;;;;;;;;4906569;29;20040;-72
2023/02/05 13:40:23;;;;;;;22.55;9.50;;;;;;;;;;4917426;29;20043;-72
2023/02/05 13:43:06;;;;;;;27.98;14.07;;;;;;;;;;4917494;29;20030;-72
2023/02/05 13:45:52;;;;;;;27.83;11.20;;;;;;;;;;4917226;29;20180;-71
2023/02/05 13:48:37;;;;;;;6.60;4.80;;;;;;;;;;4932663;29;20500;-71
2023/02/05 13:51:08;;;;;;;18.23;10.35;;;;;;;;;;4904177;29;20059;-71
2023/02/05 13:54:08;;;;;;;26.83;13.95;;;;;;;;;;4936389;29;20380;-71
2023/02/05 13:56:34;;;;;;;;;;;;;;;;;;4858912;29;20062;-72
2023/02/05 13:58:59;;;;;;;15.18;7.47;;;;;;;;;;4883717;29;20390;-73
2023/02/05 14:01:28;;;;;;;17.40;8.75;;;;;;;;;;4899874;29;20074;-72
2023/02/05 14:03:59;;;;;;;11.25;7.65;;;;;;;;;;4899728;29;20050;-73
2023/02/05 14:06:28;;;;;;;9.23;5.63;;;;;;;;;;4901414;29;20028;-72
2023/02/05 14:09:01;;;;;;;7.20;5.25;;;;;;;;;;4936427;29;20087;-72
2023/02/05 14:11:27;;;;;;;15.18;9.88;;;;;;;;;;4936200;29;20061;-72
2023/02/05 14:14:28;;;;;;;16.50;10.45;;;;;;;;;;4935587;29;20035;-72
2023/02/05 14:16:58;;;;;;;13.50;7.63;;;;;;;;;;4857218;29;20154;-72
2023/02/05 14:19:25;;;;;;;11.88;7.35;;;;;;;;;;4905272;29;20485;-72
2023/02/05 14:21:58;;;;;;;10.75;8.70;;;;;;;;;;4915360;29;20020;-72
2023/02/05 14:24:24;;;;;;;11.57;7.40;;;;;;;;;;4899579;29;20370;-73
2023/02/05 14:26:56;;;;;;;16.85;7.55;;;;;;;;;;4920675;29;20054;-72
2023/02/05 14:29:39;;;;;;;22.63;9.63;;;;;;;;;;4935329;29;20040;-72
2023/02/05 14:32:04;;;;;;;12.70;8.18;;;;;;;;;;4918483;29;20061;-72
2023/02/05 14:34:33;;;;;;;12.07;7.30;;;;;;;;;;4918454;29;20475;-72
2023/02/05 14:36:58;;;;;;;9.90;6.43;;;;;;;;;;4929974;29;20032;-73
2023/02/05 14:39:31;;;;;;;23.23;12.18;;;;;;;;;;4916751;29;20083;-72
2023/02/05 14:41:59;;;;;;;127.00;54.85;;;;;;;;;;4899896;29;20070;-72
2023/02/05 14:44:49;;;;;;;238.80;96.07;;;;;;;;;;4916844;29;20092;-72
2023/02/05 14:47:22;;;;;;;8.98;5.85;;;;;;;;;;4916214;29;20048;-72
2023/02/05 14:49:48;;;;;;;7.15;5.90;;;;;;;;;;4899815;29;20032;-72